createdAt,value
2022-11-03T00:01:34.188Z,3.50
2022-11-03T00:04:01.984Z,3.40
2022-11-03T00:06:31.211Z,3.30
2022-11-03T00:09:00.167Z,3.20
2022-11-03T00:11:27.941Z,3.10
2022-11-03T00:13:55.881Z,3.00
2022-11-03T00:16:23.651Z,2.90
2022-11-03T00:18:52.258Z,2.90
2022-11-03T00:21:20.223Z,2.90
2022-11-03T00:23:49.368Z,2.80
2022-11-03T00:26:20.709Z,2.80
2022-11-03T00:28:51.567Z,2.80
2022-11-03T00:31:21.047Z,2.90
2022-11-03T00:33:49.522Z,3.00
2022-11-03T00:36:19.404Z,3.00
2022-11-03T00:38:48.880Z,3.00
2022-11-03T00:41:17.661Z,2.90
2022-11-03T00:43:45.601Z,2.90
2022-11-03T00:46:13.662Z,2.90
2022-11-03T00:48:42.229Z,2.90
2022-11-03T00:51:11.775Z,2.80
2022-11-03T00:53:41.606Z,2.90
2022-11-03T00:56:12.480Z,3.10
2022-11-03T00:58:40.313Z,3.20
2022-11-03T01:01:09.938Z,3.10
2022-11-03T01:03:39.938Z,2.90
2022-11-03T01:06:26.900Z,2.80
2022-11-03T01:08:55.361Z,2.60
2022-11-03T01:11:42.761Z,2.50
2022-11-03T01:14:12.050Z,2.50
2022-11-03T01:16:39.811Z,2.50
2022-11-03T01:19:07.564Z,2.50
2022-11-03T01:21:35.418Z,2.50
2022-11-03T01:24:04.023Z,2.40
2022-11-03T01:26:33.693Z,2.30
2022-11-03T01:29:02.296Z,2.30
2022-11-03T01:31:30.382Z,2.30
2022-11-03T01:33:58.727Z,2.30
2022-11-03T01:36:27.316Z,2.30
2022-11-03T01:38:56.434Z,2.30
2022-11-03T01:41:26.948Z,2.20
2022-11-03T01:44:27.999Z,2.20
2022-11-03T01:47:02.299Z,2.10
2022-11-03T01:49:35.838Z,2.00
2022-11-03T01:52:08.693Z,2.00
2022-11-03T01:54:38.584Z,2.00
2022-11-03T01:57:10.428Z,1.90
2022-11-03T01:59:40.606Z,2.00
2022-11-03T02:02:08.562Z,2.10
2022-11-03T02:04:37.191Z,2.50
2022-11-03T02:07:15.703Z,2.50
2022-11-03T02:09:43.461Z,2.50
2022-11-03T02:12:11.836Z,2.30
2022-11-03T02:14:44.290Z,2.10
2022-11-03T02:17:14.833Z,2.00
2022-11-03T02:19:46.511Z,1.90
2022-11-03T02:22:37.055Z,1.80
2022-11-03T02:25:16.239Z,1.80
2022-11-03T02:27:45.950Z,2.20
2022-11-03T02:30:14.016Z,2.10
2022-11-03T02:32:50.359Z,2.00
2022-11-03T02:35:23.548Z,1.80
2022-11-03T02:37:57.419Z,2.00
2022-11-03T02:40:29.345Z,2.20
2022-11-03T02:43:00.089Z,2.10
2022-11-03T02:45:29.472Z,2.00
2022-11-03T02:48:00.589Z,1.90
2022-11-03T02:50:29.549Z,1.80
2022-11-03T02:52:57.552Z,1.90
2022-11-03T02:55:34.687Z,2.00
2022-11-03T02:58:11.362Z,2.10
2022-11-03T03:00:44.375Z,2.20
2022-11-03T03:03:18.515Z,2.40
2022-11-03T03:05:48.544Z,2.50
2022-11-03T03:08:17.315Z,2.40
2022-11-03T03:10:47.541Z,2.40
2022-11-03T03:13:20.272Z,2.20
2022-11-03T03:15:56.672Z,2.20
2022-11-03T03:18:27.560Z,2.10
2022-11-03T03:21:00.532Z,2.00
2022-11-03T03:23:33.012Z,1.80
2022-11-03T03:26:05.913Z,1.80
2022-11-03T03:28:39.669Z,1.80
2022-11-03T03:31:13.035Z,1.70
2022-11-03T03:33:44.969Z,1.60
2022-11-03T03:36:18.796Z,1.50
2022-11-03T03:38:51.691Z,1.50
2022-11-03T03:41:22.705Z,1.50
2022-11-03T03:43:54.500Z,1.40
2022-11-03T03:46:25.239Z,1.40
2022-11-03T03:48:53.018Z,1.60
2022-11-03T03:51:25.905Z,1.70
2022-11-03T03:53:54.443Z,1.70
2022-11-03T03:56:27.947Z,1.60
2022-11-03T03:58:57.085Z,1.50
2022-11-03T04:01:25.069Z,1.50
2022-11-03T04:03:53.017Z,1.60
2022-11-03T04:06:20.824Z,1.60
2022-11-03T04:08:48.602Z,1.60
2022-11-03T04:11:34.093Z,1.60
2022-11-03T04:14:20.757Z,1.70
2022-11-03T04:17:06.167Z,1.70
2022-11-03T04:19:51.460Z,1.80
2022-11-03T04:22:21.267Z,1.70
2022-11-03T04:24:51.453Z,1.60
2022-11-03T04:27:30.504Z,1.50
2022-11-03T04:30:11.157Z,1.70
2022-11-03T04:32:39.119Z,1.70
2022-11-03T04:35:17.253Z,1.60
2022-11-03T04:37:47.788Z,1.60
2022-11-03T04:40:17.459Z,1.70
2022-11-03T04:42:46.067Z,1.80
2022-11-03T04:45:23.383Z,2.10
2022-11-03T04:47:51.415Z,2.10
2022-11-03T04:50:21.288Z,2.10
2022-11-03T04:52:49.820Z,2.00
2022-11-03T04:55:19.423Z,1.90
2022-11-03T04:57:47.429Z,1.80
2022-11-03T05:00:20.813Z,1.70
2022-11-03T05:02:53.197Z,1.80
2022-11-03T05:05:25.879Z,1.90
2022-11-03T05:07:56.300Z,1.80
2022-11-03T05:10:27.365Z,1.80
2022-11-03T05:12:57.368Z,2.20
2022-11-03T05:15:36.316Z,2.30
2022-11-03T05:18:18.710Z,2.10
2022-11-03T05:20:51.768Z,2.00
2022-11-03T05:23:21.590Z,1.80
2022-11-03T05:25:53.619Z,1.70
2022-11-03T05:28:25.485Z,1.60
2022-11-03T05:30:55.580Z,1.70
2022-11-03T05:33:28.357Z,1.80
2022-11-03T05:35:59.535Z,1.90
2022-11-03T05:38:31.515Z,1.90
2022-11-03T05:41:00.344Z,1.90
2022-11-03T05:43:30.176Z,1.80
2022-11-03T05:46:02.538Z,1.80
2022-11-03T05:48:33.892Z,1.70
2022-11-03T05:51:04.046Z,1.80
2022-11-03T05:53:33.064Z,1.70
2022-11-03T05:56:03.221Z,1.60
2022-11-03T05:58:35.796Z,1.60
2022-11-03T06:01:11.176Z,1.60
2022-11-03T06:03:39.447Z,1.60
2022-11-03T06:06:16.056Z,1.70
2022-11-03T06:08:46.032Z,1.90
2022-11-03T06:11:23.859Z,2.00
2022-11-03T06:13:51.687Z,2.00
2022-11-03T06:16:39.988Z,1.80
2022-11-03T06:19:20.561Z,1.70
2022-11-03T06:21:49.669Z,1.60
2022-11-03T06:24:20.741Z,1.70
2022-11-03T06:26:50.797Z,1.80
2022-11-03T06:29:20.820Z,2.00
2022-11-03T06:31:51.291Z,2.10
2022-11-03T06:34:30.214Z,2.00
2022-11-03T06:37:01.201Z,2.00
2022-11-03T06:39:28.996Z,2.00
2022-11-03T06:41:56.877Z,2.00
2022-11-03T06:44:28.370Z,2.00
2022-11-03T06:47:00.942Z,2.10
2022-11-03T06:49:31.865Z,2.20
2022-11-03T06:52:03.233Z,2.20
2022-11-03T06:54:31.005Z,2.40
2022-11-03T06:56:58.944Z,2.60
2022-11-03T06:59:26.718Z,3.00
2022-11-03T07:01:57.908Z,3.30
2022-11-03T07:04:28.989Z,3.50
2022-11-03T07:07:00.558Z,3.70
2022-11-03T07:09:28.649Z,3.70
2022-11-03T07:11:58.692Z,3.70
2022-11-03T07:14:29.105Z,3.40
2022-11-03T07:17:01.837Z,3.60
2022-11-03T07:19:34.207Z,3.70
2022-11-03T07:22:04.667Z,3.80
2022-11-03T07:24:34.467Z,4.00
2022-11-03T07:27:14.820Z,4.20
2022-11-03T07:29:43.754Z,4.40
2022-11-03T07:32:17.021Z,4.70
2022-11-03T07:34:45.031Z,4.80
2022-11-03T07:37:19.649Z,4.90
2022-11-03T07:39:48.760Z,5.10
2022-11-03T07:42:21.598Z,5.10
2022-11-03T07:44:50.964Z,5.00
2022-11-03T07:47:23.362Z,5.20
2022-11-03T07:49:51.121Z,5.40
2022-11-03T07:52:22.801Z,5.60
2022-11-03T07:54:52.135Z,5.70
2022-11-03T07:57:23.398Z,5.80
2022-11-03T07:59:54.082Z,6.10
2022-11-03T08:02:31.662Z,6.30
2022-11-03T08:04:59.812Z,6.30
2022-11-03T08:07:28.427Z,6.40
2022-11-03T08:09:56.386Z,6.50
2022-11-03T08:12:24.372Z,6.60
2022-11-03T08:14:52.185Z,6.80
2022-11-03T08:17:19.940Z,7.00
2022-11-03T08:19:49.054Z,7.10
2022-11-03T08:22:16.915Z,7.30
2022-11-03T08:24:44.832Z,7.40
2022-11-03T08:27:12.571Z,7.60
2022-11-03T08:29:40.569Z,7.70
2022-11-03T08:32:08.339Z,7.70
2022-11-03T08:34:36.152Z,7.70
2022-11-03T08:37:05.232Z,7.70
2022-11-03T08:39:32.984Z,7.80
2022-11-03T08:42:00.785Z,7.70
2022-11-03T08:44:28.801Z,7.70
2022-11-03T08:46:56.564Z,7.70
2022-11-03T08:49:24.324Z,7.90
2022-11-03T08:51:52.081Z,8.00
2022-11-03T08:54:21.204Z,8.10
2022-11-03T08:56:49.377Z,8.30
2022-11-03T08:59:18.024Z,8.40
2022-11-03T09:01:45.935Z,8.70
2022-11-03T09:04:13.863Z,9.00
2022-11-03T09:06:41.720Z,9.30
2022-11-03T09:11:58.617Z,9.60
2022-11-03T09:14:26.387Z,9.80
2022-11-03T09:16:54.169Z,9.90
2022-11-03T09:19:21.945Z,10.10
2022-11-03T09:21:49.684Z,10.20
2022-11-03T09:24:17.494Z,10.20
2022-11-03T09:26:45.277Z,10.30
2022-11-03T09:29:14.374Z,10.60
2022-11-03T09:31:42.135Z,10.70
2022-11-03T09:34:09.911Z,10.80
2022-11-03T09:36:38.160Z,10.60
2022-11-03T09:39:06.072Z,10.40
2022-11-03T09:41:55.937Z,10.50
2022-11-03T09:44:23.218Z,10.60
2022-11-03T09:46:55.414Z,10.90
2022-11-03T09:49:26.101Z,11.00
2022-11-03T09:51:54.093Z,11.10
2022-11-03T09:54:21.855Z,10.90
2022-11-03T09:56:49.652Z,10.90
2022-11-03T09:59:18.606Z,10.90
2022-11-03T10:01:49.957Z,11.00
2022-11-03T10:04:20.840Z,11.20
2022-11-03T10:06:48.628Z,11.50
2022-11-03T10:09:20.566Z,11.60
2022-11-03T10:11:49.041Z,11.60
2022-11-03T10:14:18.913Z,11.60
2022-11-03T10:16:53.723Z,11.80
2022-11-03T10:19:21.892Z,11.80
2022-11-03T10:21:49.692Z,11.90
2022-11-03T10:24:17.655Z,12.00
2022-11-03T10:26:47.219Z,12.10
2022-11-03T10:29:23.191Z,12.30
2022-11-03T10:31:54.097Z,12.40
2022-11-03T10:34:28.057Z,12.40
2022-11-03T10:37:17.403Z,12.40
2022-11-03T10:39:46.040Z,12.50
2022-11-03T10:42:20.127Z,12.50
2022-11-03T10:44:48.300Z,12.70
2022-11-03T10:47:35.470Z,12.90
2022-11-03T10:50:20.973Z,13.20
2022-11-03T10:52:49.080Z,13.00
2022-11-03T10:55:20.591Z,13.30
2022-11-03T10:57:53.091Z,13.40
2022-11-03T11:00:21.472Z,13.40
2022-11-03T11:02:56.611Z,13.50
2022-11-03T11:05:25.672Z,13.70
2022-11-03T11:07:55.133Z,14.00
2022-11-03T11:10:25.260Z,14.30
2022-11-03T11:13:12.372Z,14.40
2022-11-03T11:15:43.456Z,14.50
2022-11-03T11:18:32.872Z,14.50
2022-11-03T11:21:24.050Z,14.60
2022-11-03T11:23:52.977Z,14.90
2022-11-03T11:26:42.002Z,14.90
2022-11-03T11:29:43.792Z,14.90
2022-11-03T11:32:48.901Z,14.90
2022-11-03T11:36:05.386Z,15.00
2022-11-03T11:39:11.047Z,15.10
2022-11-03T11:42:16.727Z,15.10
2022-11-03T11:44:50.573Z,15.00
2022-11-03T11:47:51.729Z,15.00
2022-11-03T11:50:37.173Z,15.00
2022-11-03T11:53:19.406Z,14.90
2022-11-03T11:55:52.768Z,14.90
2022-11-03T11:58:27.730Z,14.90
2022-11-03T12:00:59.790Z,14.80
2022-11-03T12:03:32.011Z,14.70
2022-11-03T12:06:00.023Z,14.60
2022-11-03T12:08:30.727Z,14.60
2022-11-03T12:11:02.029Z,14.60
2022-11-03T12:13:48.291Z,14.60
2022-11-03T12:16:32.049Z,14.50
2022-11-03T12:19:35.562Z,14.70
2022-11-03T12:22:03.924Z,14.70
2022-11-03T12:24:38.444Z,14.70
2022-11-03T12:27:20.693Z,14.70
2022-11-03T12:29:48.518Z,14.80
2022-11-03T12:32:32.310Z,14.70
2022-11-03T12:35:02.495Z,14.60
2022-11-03T12:37:30.304Z,14.70
2022-11-03T12:39:58.081Z,14.70
2022-11-03T12:42:27.277Z,14.70
2022-11-03T12:44:55.844Z,14.60
2022-11-03T12:47:23.781Z,14.50
2022-11-03T12:49:51.553Z,14.50
2022-11-03T12:52:19.303Z,14.40
2022-11-03T12:54:47.075Z,14.30
2022-11-03T12:57:14.881Z,14.20
2022-11-03T12:59:44.060Z,14.20
2022-11-03T13:02:12.441Z,14.20
2022-11-03T13:04:40.273Z,14.10
2022-11-03T13:07:08.050Z,14.10
2022-11-03T13:09:36.700Z,14.10
2022-11-03T13:12:22.266Z,14.10
2022-11-03T13:14:51.498Z,14.10
2022-11-03T13:17:19.277Z,14.10
2022-11-03T13:19:47.267Z,14.00
2022-11-03T13:22:15.045Z,14.10
2022-11-03T13:24:42.846Z,14.10
2022-11-03T13:27:10.769Z,14.10
2022-11-03T13:29:38.642Z,14.00
2022-11-03T13:32:08.438Z,14.00
2022-11-03T13:34:36.302Z,14.10
2022-11-03T13:37:04.664Z,14.10
2022-11-03T13:39:32.860Z,14.00
2022-11-03T13:42:01.506Z,14.00
2022-11-03T13:44:29.281Z,14.00
2022-11-03T13:46:57.020Z,14.00
2022-11-03T13:52:13.878Z,13.80
2022-11-03T14:00:17.545Z,13.90
2022-11-03T14:05:34.468Z,13.90
2022-11-03T14:08:05.380Z,13.90
2022-11-03T14:10:33.434Z,13.80
2022-11-03T14:13:00.209Z,13.80
2022-11-03T14:15:28.085Z,13.80
2022-11-03T14:17:55.822Z,13.80
2022-11-03T14:20:23.639Z,13.70
2022-11-03T14:22:52.794Z,13.70
2022-11-03T14:25:20.674Z,13.70
2022-11-03T14:27:48.514Z,13.70
2022-11-03T14:30:19.664Z,13.70
2022-11-03T14:32:47.536Z,13.70
2022-11-03T14:35:15.421Z,13.70
2022-11-03T14:37:43.365Z,13.80
2022-11-03T14:40:33.254Z,13.80
2022-11-03T14:43:00.769Z,13.70
2022-11-03T14:45:28.549Z,13.70
2022-11-03T14:47:56.317Z,13.60
2022-11-03T14:50:24.085Z,13.60
2022-11-03T14:52:52.438Z,13.50
2022-11-03T14:55:24.092Z,13.50
2022-11-03T14:57:51.826Z,13.60
2022-11-03T15:00:20.425Z,13.50
2022-11-03T15:02:48.281Z,13.50
2022-11-03T15:05:36.049Z,13.40
2022-11-03T15:08:06.747Z,13.50
2022-11-03T15:10:36.110Z,13.50
2022-11-03T15:13:04.070Z,13.40
2022-11-03T15:15:32.269Z,13.40
2022-11-03T15:18:02.822Z,13.40
2022-11-03T15:20:31.389Z,13.30
2022-11-03T15:25:48.286Z,13.30
2022-11-03T15:28:16.050Z,13.30
2022-11-03T15:30:43.821Z,13.40
2022-11-03T15:35:44.640Z,13.30
2022-11-03T15:38:12.822Z,13.20
2022-11-03T15:40:40.867Z,13.00
2022-11-03T15:43:10.093Z,12.90
2022-11-03T15:45:38.057Z,12.80
2022-11-03T15:48:06.165Z,12.60
2022-11-03T15:50:34.098Z,12.40
2022-11-03T15:53:01.857Z,12.20
2022-11-03T15:55:29.678Z,12.20
2022-11-03T15:57:57.438Z,12.10
2022-11-03T16:00:26.799Z,12.10
2022-11-03T16:02:54.689Z,12.20
2022-11-03T16:05:25.331Z,12.30
2022-11-03T16:07:53.294Z,12.20
2022-11-03T16:10:21.057Z,12.30
2022-11-03T16:12:48.892Z,12.40
2022-11-03T16:15:16.702Z,12.60
2022-11-03T16:17:45.912Z,12.70
2022-11-03T16:20:14.205Z,12.70
2022-11-03T16:22:42.201Z,12.60
2022-11-03T16:25:13.360Z,12.70
2022-11-03T16:27:42.794Z,12.80
2022-11-03T16:30:12.527Z,12.90
2022-11-03T16:32:40.372Z,12.80
2022-11-03T16:35:10.456Z,12.70
2022-11-03T16:37:38.301Z,12.60
2022-11-03T16:40:07.293Z,12.70
2022-11-03T16:42:38.344Z,12.90
2022-11-03T16:45:08.326Z,12.90
2022-11-03T16:47:36.108Z,12.80
2022-11-03T16:50:03.972Z,12.70
2022-11-03T16:52:33.103Z,12.60
2022-11-03T16:55:00.908Z,12.40
2022-11-03T16:57:28.673Z,12.30
2022-11-03T16:59:56.649Z,12.20
2022-11-03T17:02:24.683Z,12.30
2022-11-03T17:04:52.542Z,12.30
2022-11-03T17:07:20.349Z,12.20
2022-11-03T17:09:49.546Z,12.20
2022-11-03T17:12:17.350Z,12.20
2022-11-03T17:14:45.165Z,12.20
2022-11-03T17:17:12.981Z,12.10
2022-11-03T17:19:40.802Z,12.00
2022-11-03T17:22:08.588Z,12.00
2022-11-03T17:24:36.523Z,11.90
2022-11-03T17:27:11.392Z,11.80
2022-11-03T17:29:42.665Z,11.80
2022-11-03T17:32:14.091Z,11.80
2022-11-03T17:34:41.965Z,11.80
2022-11-03T17:37:09.917Z,11.70
2022-11-03T17:39:39.092Z,11.60
2022-11-03T17:42:18.069Z,11.50
2022-11-03T17:44:47.236Z,11.50
2022-11-03T17:47:15.644Z,11.40
2022-11-03T17:49:43.616Z,11.30
2022-11-03T17:52:15.402Z,11.20
2022-11-03T17:54:43.420Z,11.20
2022-11-03T17:57:17.832Z,11.20
2022-11-03T17:59:48.407Z,11.30
2022-11-03T18:02:18.365Z,11.50
2022-11-03T18:04:46.814Z,11.40
2022-11-03T18:07:21.190Z,11.40
2022-11-03T18:09:49.435Z,11.50
2022-11-03T18:12:38.641Z,11.80
2022-11-03T18:15:08.714Z,12.10
2022-11-03T18:17:36.884Z,12.40
2022-11-03T18:20:13.482Z,12.50
2022-11-03T18:22:41.269Z,12.60
2022-11-03T18:25:13.626Z,12.70
2022-11-03T18:27:42.811Z,12.80
2022-11-03T18:30:12.968Z,12.70
2022-11-03T18:32:41.726Z,12.60
2022-11-03T18:35:17.859Z,12.30
2022-11-03T18:37:45.750Z,12.10
2022-11-03T18:40:15.675Z,12.10
2022-11-03T18:42:44.842Z,12.10
2022-11-03T18:45:14.410Z,12.10
2022-11-03T18:47:42.860Z,12.10
2022-11-03T18:50:15.464Z,12.00
2022-11-03T18:52:45.268Z,12.00
2022-11-03T18:55:14.187Z,12.10
2022-11-03T18:57:42.183Z,12.10
2022-11-03T19:00:17.860Z,12.10
2022-11-03T19:02:45.929Z,12.10
2022-11-03T19:05:14.408Z,12.00
2022-11-03T19:07:44.261Z,11.90
2022-11-03T19:10:16.105Z,11.80
2022-11-03T19:12:44.938Z,11.60
2022-11-03T19:15:19.743Z,11.50
2022-11-03T19:17:49.775Z,11.20
2022-11-03T19:20:19.179Z,11.10
2022-11-03T19:22:47.582Z,11.00
2022-11-03T19:25:15.773Z,10.70
2022-11-03T19:27:46.725Z,10.70
2022-11-03T19:30:18.123Z,10.60
2022-11-03T19:32:48.081Z,10.60
2022-11-03T19:35:20.337Z,10.50
2022-11-03T19:37:50.389Z,10.60
2022-11-03T19:40:20.354Z,10.50
2022-11-03T19:42:48.640Z,10.50
2022-11-03T19:45:19.608Z,10.50
2022-11-03T19:48:18.410Z,10.50
2022-11-03T19:50:40.592Z,10.50
2022-11-03T19:53:08.707Z,10.40
2022-11-03T19:55:39.248Z,10.30
2022-11-03T19:58:14.245Z,10.30
2022-11-03T20:00:43.525Z,10.20
2022-11-03T20:03:11.703Z,10.10
2022-11-03T20:05:42.033Z,10.10
2022-11-03T20:08:18.109Z,10.10
2022-11-03T20:10:47.557Z,10.00
2022-11-03T20:13:16.746Z,10.00
2022-11-03T20:15:46.706Z,9.90
2022-11-03T20:18:15.465Z,9.80
2022-11-03T20:20:44.710Z,9.90
2022-11-03T20:23:19.416Z,9.90
2022-11-03T20:25:47.817Z,9.90
2022-11-03T20:28:18.642Z,9.80
2022-11-03T20:30:48.321Z,9.80
2022-11-03T20:33:17.842Z,9.70
2022-11-03T20:35:46.705Z,9.60
2022-11-03T20:38:18.890Z,9.60
2022-11-03T20:40:47.856Z,9.60
2022-11-03T20:43:24.290Z,9.60
2022-11-03T20:45:53.637Z,9.50
2022-11-03T20:48:21.435Z,9.50
2022-11-03T20:50:49.842Z,9.50
2022-11-03T20:53:19.684Z,9.40
2022-11-03T20:55:48.183Z,9.40
2022-11-03T20:58:17.788Z,9.50
2022-11-03T21:00:46.924Z,9.70
2022-11-03T21:03:37.544Z,10.10
2022-11-03T21:06:08.185Z,10.20
2022-11-03T21:08:36.002Z,10.50
2022-11-03T21:11:17.761Z,10.40
2022-11-03T21:13:45.555Z,10.30
2022-11-03T21:16:30.671Z,10.30
2022-11-03T21:19:17.369Z,10.30
2022-11-03T21:21:45.148Z,10.30
2022-11-03T21:24:13.273Z,10.40
2022-11-03T21:26:41.902Z,10.40
2022-11-03T21:29:09.703Z,10.40
2022-11-03T21:31:37.470Z,10.30
2022-11-03T21:34:06.581Z,10.30
2022-11-03T21:36:34.364Z,10.20
2022-11-03T21:39:02.209Z,10.20
2022-11-03T21:41:47.786Z,10.10
2022-11-03T21:44:18.457Z,10.10
2022-11-03T21:46:46.775Z,10.30
2022-11-03T21:49:33.272Z,10.30
2022-11-03T21:52:01.160Z,10.30
2022-11-03T21:54:28.907Z,10.20
2022-11-03T21:56:56.774Z,10.10
2022-11-03T21:59:24.990Z,10.10
2022-11-03T22:01:55.098Z,10.00
2022-11-03T22:04:24.737Z,9.90
2022-11-03T22:06:55.489Z,9.80
2022-11-03T22:09:24.021Z,9.70
2022-11-03T22:11:52.096Z,9.70
2022-11-03T22:14:20.329Z,9.60
2022-11-03T22:16:47.388Z,9.60
2022-11-03T22:19:34.905Z,9.50
2022-11-03T22:22:23.633Z,9.50
2022-11-03T22:25:09.179Z,9.40
2022-11-03T22:27:36.999Z,9.30
2022-11-03T22:30:23.380Z,9.30
2022-11-03T22:32:53.003Z,9.30
2022-11-03T22:35:39.838Z,9.20
2022-11-03T22:38:11.170Z,9.20
2022-11-03T22:40:57.639Z,9.10
2022-11-03T22:43:43.462Z,9.10
2022-11-03T22:46:13.117Z,9.00
2022-11-03T22:48:41.398Z,9.00
2022-11-03T22:51:11.589Z,8.90
2022-11-03T22:53:58.549Z,8.80
2022-11-03T22:56:28.074Z,8.80
2022-11-03T22:58:56.556Z,8.80
2022-11-03T23:01:27.514Z,8.80
2022-11-03T23:03:55.684Z,8.80
2022-11-03T23:06:25.532Z,8.70
2022-11-03T23:08:55.612Z,8.60
2022-11-03T23:11:25.283Z,8.50
2022-11-03T23:13:55.531Z,8.50
2022-11-03T23:16:25.229Z,8.50
2022-11-03T23:19:10.830Z,8.50
2022-11-03T23:21:38.965Z,8.60
2022-11-03T23:24:26.501Z,8.70
2022-11-03T23:26:54.281Z,8.60
2022-11-03T23:29:22.413Z,8.70
2022-11-03T23:31:50.185Z,8.70
2022-11-03T23:34:18.056Z,8.70
2022-11-03T23:36:45.910Z,8.80
2022-11-03T23:39:16.187Z,8.80
2022-11-03T23:41:45.015Z,8.80
2022-11-03T23:44:15.821Z,8.80
2022-11-03T23:47:02.128Z,8.80
2022-11-03T23:49:30.197Z,8.80
2022-11-03T23:51:57.997Z,8.70
2022-11-03T23:54:27.426Z,8.80
2022-11-03T23:57:13.092Z,8.80
2022-11-03T23:59:41.021Z,8.70
